Time;durP1;ratioP1;P1;durP2;ratioP2;P2;SDS_P1;SDS_P2;PMS_P1;PMS_P2;Temp;Humidity;BMP_temperature;BMP_pressure;BME280_temperature;BME280_humidity;BME280_pressure;Samples;Min_cycle;Max_cycle;Signal;HPM_P1;HPM_P2
2022/09/24 05:00:32;;;;;;;14.85;13.57;;;;;;;;;;6093021;22;20335;31
2022/09/24 05:02:59;;;;;;;14.40;13.20;;;;;;;;;;4932192;28;20427;-88
2022/09/24 05:05:26;;;;;;;13.85;12.75;;;;;;;;;;4920893;28;20395;-90
2022/09/24 05:07:52;;;;;;;14.30;13.10;;;;;;;;;;4925910;28;20405;-87
2022/09/24 05:10:18;;;;;;;13.73;12.73;;;;;;;;;;4927016;29;20392;-87
2022/09/24 05:12:44;;;;;;;12.68;11.68;;;;;;;;;;4914093;28;20402;-85
2022/09/24 05:15:11;;;;;;;13.03;12.10;;;;;;;;;;4915762;28;20807;-86
2022/09/24 05:17:38;;;;;;;13.85;12.65;;;;;;;;;;4913329;29;20447;-87
2022/09/24 05:20:04;;;;;;;13.43;12.32;;;;;;;;;;4913183;29;20869;-88
2022/09/24 05:22:30;;;;;;;13.65;12.50;;;;;;;;;;4915543;28;20432;-86
2022/09/24 05:24:56;;;;;;;13.75;12.70;;;;;;;;;;4919364;28;20419;-87
2022/09/24 05:27:22;;;;;;;15.07;13.88;;;;;;;;;;4922958;28;20399;-87
2022/09/24 05:29:49;;;;;;;13.77;12.68;;;;;;;;;;4935518;29;20386;-88
2022/09/24 05:32:18;;;;;;;13.68;12.57;;;;;;;;;;4930639;29;20876;-87
2022/09/24 05:34:44;;;;;;;15.70;14.37;;;;;;;;;;4923777;28;20401;-88
2022/09/24 05:37:11;;;;;;;14.13;12.93;;;;;;;;;;4933133;28;20487;-89
2022/09/24 05:39:37;;;;;;;15.43;14.13;;;;;;;;;;4935766;29;20430;-90
2022/09/24 05:42:03;;;;;;;16.23;15.02;;;;;;;;;;4930857;28;20432;-88
2022/09/24 05:44:32;;;;;;;16.35;14.95;;;;;;;;;;4931140;29;20516;-86
2022/09/24 05:46:58;;;;;;;16.23;14.82;;;;;;;;;;4928547;29;20384;-87
2022/09/24 05:49:24;;;;;;;15.95;14.73;;;;;;;;;;4933804;28;20882;-87
2022/09/24 05:51:50;;;;;;;20.38;18.58;;;;;;;;;;4931821;29;20396;-87
2022/09/24 05:54:17;;;;;;;18.20;16.70;;;;;;;;;;4934974;29;20483;-87
2022/09/24 05:56:43;;;;;;;20.42;18.38;;;;;;;;;;4934206;28;20424;-88
2022/09/24 05:59:09;;;;;;;20.23;18.42;;;;;;;;;;4934914;29;20395;-88
2022/09/24 06:01:36;;;;;;;20.58;18.67;;;;;;;;;;4934510;28;20443;-87
2022/09/24 06:04:02;;;;;;;19.05;17.25;;;;;;;;;;4935014;28;20458;-86
2022/09/24 06:06:28;;;;;;;18.00;16.50;;;;;;;;;;4935039;28;20387;-87
2022/09/24 06:08:54;;;;;;;17.58;16.15;;;;;;;;;;4935113;28;20437;-86
2022/09/24 06:11:21;;;;;;;16.08;14.88;;;;;;;;;;4946719;28;20467;-86
2022/09/24 06:13:47;;;;;;;17.13;15.60;;;;;;;;;;4934902;29;20903;-87
2022/09/24 06:16:13;;;;;;;16.63;15.30;;;;;;;;;;4934512;28;20911;-86
2022/09/24 06:18:41;;;;;;;16.23;15.02;;;;;;;;;;4934927;28;20451;-87
2022/09/24 06:21:08;;;;;;;15.90;14.63;;;;;;;;;;4934695;28;20925;-88
2022/09/24 06:23:35;;;;;;;18.92;17.23;;;;;;;;;;4934638;28;20416;-88
2022/09/24 06:26:01;;;;;;;19.10;17.52;;;;;;;;;;4934686;28;20745;-87
2022/09/24 06:28:27;;;;;;;18.95;17.45;;;;;;;;;;4934627;28;20475;-86
2022/09/24 06:30:53;;;;;;;17.90;16.40;;;;;;;;;;4933984;28;20785;-86
2022/09/24 06:33:19;;;;;;;17.80;16.38;;;;;;;;;;4931273;28;20475;-87
2022/09/24 06:35:47;;;;;;;20.77;18.98;;;;;;;;;;4934434;29;20892;-87
2022/09/24 06:38:14;;;;;;;19.15;17.55;;;;;;;;;;4934324;29;20398;-87
2022/09/24 06:40:42;;;;;;;20.30;18.48;;;;;;;;;;4934063;28;20392;-87
2022/09/24 06:43:09;;;;;;;19.08;17.60;;;;;;;;;;4927116;29;20412;-87
2022/09/24 06:45:35;;;;;;;18.50;17.05;;;;;;;;;;4934247;29;20411;-87
2022/09/24 06:48:03;;;;;;;16.77;15.35;;;;;;;;;;4934079;29;20849;-88
2022/09/24 06:50:30;;;;;;;15.57;14.48;;;;;;;;;;4934221;28;20445;-88
2022/09/24 06:52:57;;;;;;;19.10;17.48;;;;;;;;;;4934300;29;20399;-88
2022/09/24 06:55:23;;;;;;;16.52;15.13;;;;;;;;;;4934362;29;20400;-87
2022/09/24 06:57:49;;;;;;;16.77;15.57;;;;;;;;;;4934331;28;20384;-87
2022/09/24 07:00:16;;;;;;;15.88;14.57;;;;;;;;;;4934275;28;20895;-86
2022/09/24 07:02:42;;;;;;;14.60;13.40;;;;;;;;;;4925320;28;20426;-87
2022/09/24 07:05:08;;;;;;;14.63;13.43;;;;;;;;;;4934207;28;20380;-88
2022/09/24 07:07:36;;;;;;;15.75;14.45;;;;;;;;;;4934232;28;20476;-87
2022/09/24 07:10:03;;;;;;;14.80;13.60;;;;;;;;;;4934302;29;20390;-87
2022/09/24 07:12:30;;;;;;;13.10;12.05;;;;;;;;;;4933681;29;20402;-86
2022/09/24 07:14:56;;;;;;;13.20;12.20;;;;;;;;;;4932815;29;20380;-87
2022/09/24 07:17:23;;;;;;;13.35;12.05;;;;;;;;;;4933872;29;20384;-87
2022/09/24 07:19:49;;;;;;;11.00;10.10;;;;;;;;;;4933892;28;20494;-87
2022/09/24 07:22:15;;;;;;;13.02;12.02;;;;;;;;;;4933724;28;20468;-89
2022/09/24 07:24:41;;;;;;;12.38;11.38;;;;;;;;;;4933952;28;20392;-86
2022/09/24 07:27:07;;;;;;;10.88;10.05;;;;;;;;;;4940878;28;20384;-89
2022/09/24 07:29:33;;;;;;;9.82;9.02;;;;;;;;;;4932894;28;20402;-87
2022/09/24 07:31:59;;;;;;;11.10;10.00;;;;;;;;;;4929449;28;20422;-87
2022/09/24 07:34:25;;;;;;;11.48;10.52;;;;;;;;;;4937525;28;20396;-88
2022/09/24 07:36:51;;;;;;;10.80;9.90;;;;;;;;;;4933629;28;20443;-88
2022/09/24 07:39:19;;;;;;;9.95;9.10;;;;;;;;;;4934258;28;20427;-88
2022/09/24 07:41:45;;;;;;;9.65;8.93;;;;;;;;;;4914709;28;20894;-87
2022/09/24 07:44:11;;;;;;;8.98;8.30;;;;;;;;;;4932388;28;20884;-88
2022/09/24 07:46:37;;;;;;;8.77;8.18;;;;;;;;;;4930103;28;20391;-88
2022/09/24 07:49:03;;;;;;;8.32;7.63;;;;;;;;;;4933343;28;20379;-86
2022/09/24 07:51:29;;;;;;;8.07;7.47;;;;;;;;;;4933327;28;20387;-88
2022/09/24 07:53:56;;;;;;;7.07;6.57;;;;;;;;;;4933264;29;20388;-88
2022/09/24 07:56:22;;;;;;;7.57;6.88;;;;;;;;;;4933563;29;20734;-87
2022/09/24 07:58:49;;;;;;;7.55;6.90;;;;;;;;;;4933295;28;20399;-88
2022/09/24 08:01:16;;;;;;;7.50;6.90;;;;;;;;;;4930744;28;20891;-86
2022/09/24 08:03:43;;;;;;;6.93;6.32;;;;;;;;;;4927394;29;20815;-88
2022/09/24 08:06:09;;;;;;;8.00;7.40;;;;;;;;;;4933292;28;20380;-88
2022/09/24 08:08:35;;;;;;;8.02;7.32;;;;;;;;;;4933095;28;20388;-87
2022/09/24 08:11:05;;;;;;;6.63;6.13;;;;;;;;;;4932923;28;20388;-88
2022/09/24 08:13:33;;;;;;;9.18;8.48;;;;;;;;;;4933050;28;20427;-87
2022/09/24 08:15:59;;;;;;;7.75;7.15;;;;;;;;;;4932883;29;20437;-86
2022/09/24 08:18:25;;;;;;;8.50;7.90;;;;;;;;;;4939553;28;20389;-88
2022/09/24 08:20:51;;;;;;;9.13;8.43;;;;;;;;;;4941402;28;20392;-87
2022/09/24 08:23:17;;;;;;;8.90;8.20;;;;;;;;;;4932809;28;20776;-86
2022/09/24 08:25:43;;;;;;;8.77;8.07;;;;;;;;;;4933022;28;20550;-86
2022/09/24 08:28:11;;;;;;;8.63;7.93;;;;;;;;;;4932719;28;20387;-87
2022/09/24 08:30:38;;;;;;;8.40;7.65;;;;;;;;;;4933144;28;20746;-87
2022/09/24 08:33:06;;;;;;;8.63;7.97;;;;;;;;;;4929533;29;20489;-86
2022/09/24 08:35:33;;;;;;;10.03;9.13;;;;;;;;;;4919558;29;20410;-86
2022/09/24 08:38:00;;;;;;;9.77;8.88;;;;;;;;;;4932733;29;20395;-86
2022/09/24 08:40:28;;;;;;;8.48;7.78;;;;;;;;;;4932454;29;20445;-87
2022/09/24 08:42:57;;;;;;;8.48;7.78;;;;;;;;;;4932484;29;20446;-87
2022/09/24 08:48:19;;;;;;;8.57;7.82;;;;;;;;;;4949755;28;20384;-87
2022/09/24 08:50:50;;;;;;;8.90;8.20;;;;;;;;;;4932360;29;20392;-87
2022/09/24 08:53:25;;;;;;;9.30;8.60;;;;;;;;;;4932701;28;20457;-86
2022/09/24 08:55:53;;;;;;;10.52;9.50;;;;;;;;;;4932364;28;20490;-86
2022/09/24 08:58:30;;;;;;;8.13;7.53;;;;;;;;;;4932841;28;20395;-87
2022/09/24 09:00:56;;;;;;;7.57;6.97;;;;;;;;;;4932117;29;20757;-86
2022/09/24 09:03:41;;;;;;;7.68;7.05;;;;;;;;;;4931893;29;20412;-86
2022/09/24 09:06:10;;;;;;;7.28;6.68;;;;;;;;;;4932255;28;20376;-86
2022/09/24 09:08:42;;;;;;;7.82;7.13;;;;;;;;;;4932328;28;20380;-87
2022/09/24 09:11:10;;;;;;;7.82;7.20;;;;;;;;;;4932128;28;20386;-86
2022/09/24 09:13:42;;;;;;;8.10;7.50;;;;;;;;;;4932395;28;20395;-87
2022/09/24 09:16:11;;;;;;;7.47;6.88;;;;;;;;;;4932371;29;20441;-86
2022/09/24 09:18:40;;;;;;;8.00;7.30;;;;;;;;;;4932069;28;20388;-87
2022/09/24 09:21:13;;;;;;;7.18;6.57;;;;;;;;;;4932162;29;20454;-87
2022/09/24 09:23:46;;;;;;;8.57;7.87;;;;;;;;;;4932043;29;20419;-87
2022/09/24 09:26:12;;;;;;;6.85;6.35;;;;;;;;;;4932260;28;20387;-87
2022/09/24 09:28:38;;;;;;;6.40;5.90;;;;;;;;;;4931968;29;20388;-87
2022/09/24 09:31:13;;;;;;;6.90;6.40;;;;;;;;;;4931408;28;20426;-87
2022/09/24 09:33:45;;;;;;;6.82;6.22;;;;;;;;;;4930638;28;20448;-86
2022/09/24 09:36:29;;;;;;;6.57;5.97;;;;;;;;;;4932571;28;20407;-86
2022/09/24 09:38:55;;;;;;;7.45;6.85;;;;;;;;;;4931981;28;20403;-86
2022/09/24 09:41:27;;;;;;;8.03;7.43;;;;;;;;;;4931838;28;20400;-85
2022/09/24 09:44:00;;;;;;;8.75;8.05;;;;;;;;;;4931671;29;20419;-86
2022/09/24 09:46:32;;;;;;;8.20;7.60;;;;;;;;;;4932136;28;20396;-86
2022/09/24 09:49:01;;;;;;;9.32;8.48;;;;;;;;;;4919289;29;20399;-86
2022/09/24 09:51:30;;;;;;;8.23;7.63;;;;;;;;;;4931629;29;20392;-86
2022/09/24 09:53:57;;;;;;;7.70;7.20;;;;;;;;;;4931722;28;20388;-87
2022/09/24 09:56:24;;;;;;;7.03;6.45;;;;;;;;;;4931758;28;20392;-87
2022/09/24 09:58:54;;;;;;;7.28;6.50;;;;;;;;;;4933622;28;20391;-86
2022/09/24 10:01:30;;;;;;;6.72;6.22;;;;;;;;;;4928295;29;20759;-85
2022/09/24 10:04:03;;;;;;;6.60;6.10;;;;;;;;;;4927557;29;20414;-86
2022/09/24 10:06:31;;;;;;;6.65;6.22;;;;;;;;;;4928104;28;20796;-87
2022/09/24 10:09:18;;;;;;;7.22;6.68;;;;;;;;;;4919379;28;20933;-86
2022/09/24 10:11:44;;;;;;;6.32;5.75;;;;;;;;;;4934776;29;20391;-86
2022/09/24 10:14:11;;;;;;;7.70;7.00;;;;;;;;;;4934831;28;20392;-86
2022/09/24 10:16:38;;;;;;;7.32;6.72;;;;;;;;;;4934764;28;20490;-86
2022/09/24 10:19:12;;;;;;;7.30;6.70;;;;;;;;;;4934652;28;20416;-87
2022/09/24 10:21:38;;;;;;;8.13;7.45;;;;;;;;;;4934639;28;20961;-87
2022/09/24 10:24:08;;;;;;;7.03;6.53;;;;;;;;;;4934759;28;20507;-86
2022/09/24 10:26:37;;;;;;;7.30;6.70;;;;;;;;;;4934461;29;20468;-87
2022/09/24 10:31:48;;;;;;;8.13;7.53;;;;;;;;;;4931492;29;20442;-86
2022/09/24 10:34:32;;;;;;;8.27;7.68;;;;;;;;;;4934485;29;20391;-87
2022/09/24 10:37:00;;;;;;;10.68;9.68;;;;;;;;;;4934531;28;20402;-87
2022/09/24 10:39:27;;;;;;;8.55;7.85;;;;;;;;;;4934448;29;20388;-86
2022/09/24 10:41:55;;;;;;;8.20;7.63;;;;;;;;;;4934416;28;20598;-86
2022/09/24 10:44:22;;;;;;;8.10;7.40;;;;;;;;;;4934277;29;20407;-86
2022/09/24 10:47:07;;;;;;;8.52;7.90;;;;;;;;;;4934212;28;20442;-87
2022/09/24 10:49:36;;;;;;;9.20;8.40;;;;;;;;;;4931015;28;20566;-86
2022/09/24 10:52:07;;;;;;;10.87;10.07;;;;;;;;;;4934175;28;20953;-86
2022/09/24 10:54:55;;;;;;;9.82;8.93;;;;;;;;;;4934338;29;20399;-85
2022/09/24 10:57:25;;;;;;;10.02;9.27;;;;;;;;;;4934138;29;20392;-86
2022/09/24 10:59:51;;;;;;;9.07;8.48;;;;;;;;;;4934240;28;20478;-86
2022/09/24 11:02:38;;;;;;;8.70;8.02;;;;;;;;;;4925446;28;20437;-86
2022/09/24 11:05:24;;;;;;;10.48;9.68;;;;;;;;;;4934164;29;20411;-88
2022/09/24 11:08:09;;;;;;;10.02;9.13;;;;;;;;;;4933910;29;20390;-86
2022/09/24 11:10:54;;;;;;;13.68;12.18;;;;;;;;;;4933917;28;20402;-85
2022/09/24 11:13:28;;;;;;;10.45;9.63;;;;;;;;;;4934013;28;20422;-86
2022/09/24 11:16:29;;;;;;;9.80;9.00;;;;;;;;;;4925460;28;20389;-86
2022/09/24 11:18:58;;;;;;;10.98;10.07;;;;;;;;;;4962754;28;20384;-86
2022/09/24 11:21:30;;;;;;;12.70;11.70;;;;;;;;;;4940439;28;20392;-86
2022/09/24 11:23:56;;;;;;;12.85;11.65;;;;;;;;;;4933813;28;20460;-87
2022/09/24 11:26:40;;;;;;;14.35;13.05;;;;;;;;;;4933818;28;20391;-86
2022/09/24 11:29:11;;;;;;;10.93;10.02;;;;;;;;;;4933849;28;20936;-86
2022/09/24 11:31:55;;;;;;;11.55;10.63;;;;;;;;;;4930473;29;20393;-86
2022/09/24 11:34:37;;;;;;;10.88;9.98;;;;;;;;;;4933534;28;20388;-86
2022/09/24 11:37:21;;;;;;;9.60;8.90;;;;;;;;;;4913788;28;20416;-86
2022/09/24 11:39:56;;;;;;;11.88;11.07;;;;;;;;;;4927227;28;20868;-86
2022/09/24 11:42:33;;;;;;;10.02;9.32;;;;;;;;;;4933381;29;20482;-86
2022/09/24 11:45:18;;;;;;;9.20;8.40;;;;;;;;;;4933741;28;20404;-86
2022/09/24 11:47:56;;;;;;;9.40;8.60;;;;;;;;;;4933876;28;20412;-86
2022/09/24 11:50:21;;;;;;;8.48;7.68;;;;;;;;;;4933304;28;20384;-86
2022/09/24 11:52:52;;;;;;;9.02;8.32;;;;;;;;;;4933620;28;20400;-87
2022/09/24 11:55:18;;;;;;;10.48;9.50;;;;;;;;;;4930146;28;20384;-86
2022/09/24 11:57:44;;;;;;;9.43;8.60;;;;;;;;;;4933414;28;20395;-85
2022/09/24 12:00:16;;;;;;;8.20;7.53;;;;;;;;;;4933310;28;20427;-85
2022/09/24 12:02:45;;;;;;;8.37;7.70;;;;;;;;;;4924474;28;20403;-87
2022/09/24 12:05:14;;;;;;;9.35;8.75;;;;;;;;;;4933454;28;20400;-86
2022/09/24 12:07:53;;;;;;;10.23;9.52;;;;;;;;;;4933067;28;20991;-86
2022/09/24 12:10:23;;;;;;;7.70;7.15;;;;;;;;;;4933278;28;20384;-85
2022/09/24 12:12:52;;;;;;;8.27;7.57;;;;;;;;;;4933112;29;20384;-85
2022/09/24 12:15:21;;;;;;;7.05;6.55;;;;;;;;;;4944239;28;20390;-85
2022/09/24 12:17:50;;;;;;;7.28;6.78;;;;;;;;;;4938921;28;20423;-85
2022/09/24 12:20:27;;;;;;;7.10;6.50;;;;;;;;;;4931110;29;21773;-86
2022/09/24 12:22:58;;;;;;;6.10;5.60;;;;;;;;;;4932851;29;20478;-85
2022/09/24 12:25:26;;;;;;;6.10;5.50;;;;;;;;;;4932907;29;20376;-85
2022/09/24 12:27:52;;;;;;;6.35;5.85;;;;;;;;;;4932983;28;20416;-85
2022/09/24 12:33:21;;;;;;;6.95;6.35;;;;;;;;;;4929497;29;20386;-84
2022/09/24 12:36:03;;;;;;;6.97;6.47;;;;;;;;;;4932693;28;20391;-85
2022/09/24 12:38:39;;;;;;;7.07;6.47;;;;;;;;;;4932682;28;20436;-85
2022/09/24 12:41:08;;;;;;;6.63;6.03;;;;;;;;;;4932635;29;20434;-85
2022/09/24 12:43:37;;;;;;;5.95;5.35;;;;;;;;;;4932610;28;20428;-85
2022/09/24 12:46:04;;;;;;;6.70;6.22;;;;;;;;;;4929415;28;20454;-84
2022/09/24 12:48:31;;;;;;;6.60;6.00;;;;;;;;;;4932388;28;20471;-84
2022/09/24 12:51:02;;;;;;;6.43;5.93;;;;;;;;;;4932523;28;20929;-86
2022/09/24 12:53:39;;;;;;;6.85;6.35;;;;;;;;;;4933026;28;20753;-85
2022/09/24 12:56:06;;;;;;;7.60;7.10;;;;;;;;;;4932491;28;20470;-86
2022/09/24 12:58:37;;;;;;;6.50;6.00;;;;;;;;;;4932537;28;20400;-86
2022/09/24 13:01:08;;;;;;;6.80;6.20;;;;;;;;;;4931547;28;20450;-84
2022/09/24 13:03:36;;;;;;;7.05;6.55;;;;;;;;;;4925954;28;20454;-85
2022/09/24 13:06:03;;;;;;;6.00;5.47;;;;;;;;;;4932310;28;20394;-85
2022/09/24 13:08:39;;;;;;;5.65;5.15;;;;;;;;;;4932335;28;20380;-85
2022/09/24 13:11:24;;;;;;;5.20;4.80;;;;;;;;;;4932113;29;20383;-85
2022/09/24 13:13:58;;;;;;;4.63;4.32;;;;;;;;;;4932618;28;20399;-84
2022/09/24 13:16:25;;;;;;;5.10;4.70;;;;;;;;;;4932184;28;20453;-86
2022/09/24 13:18:55;;;;;;;4.40;4.10;;;;;;;;;;4932117;28;20392;-87
2022/09/24 13:21:23;;;;;;;4.50;4.10;;;;;;;;;;4932404;28;20864;-88
2022/09/24 13:23:50;;;;;;;4.65;4.35;;;;;;;;;;4932390;28;20423;-87
2022/09/24 13:26:34;;;;;;;5.15;4.75;;;;;;;;;;4916577;28;20402;-90
2022/09/24 13:29:02;;;;;;;4.78;4.43;;;;;;;;;;4916195;28;20462;-89
2022/09/24 13:31:28;;;;;;;4.85;4.45;;;;;;;;;;4915613;29;20412;-88
2022/09/24 13:33:59;;;;;;;4.93;4.53;;;;;;;;;;4931324;28;20463;-87
2022/09/24 13:36:28;;;;;;;4.40;4.10;;;;;;;;;;4912577;28;20421;-88
2022/09/24 13:39:17;;;;;;;4.68;4.28;;;;;;;;;;4914704;28;20397;-88
2022/09/24 13:41:50;;;;;;;4.47;4.18;;;;;;;;;;4938064;28;20451;-86
2022/09/24 13:44:31;;;;;;;4.30;4.00;;;;;;;;;;4924248;29;20434;-88
2022/09/24 13:47:17;;;;;;;4.40;4.10;;;;;;;;;;4934339;28;20395;-88
2022/09/24 13:49:47;;;;;;;4.00;3.70;;;;;;;;;;4946789;28;20909;-88
2022/09/24 13:52:16;;;;;;;4.22;3.88;;;;;;;;;;4930256;28;20413;-88
2022/09/24 13:54:48;;;;;;;4.55;4.25;;;;;;;;;;4916939;28;20386;-86
2022/09/24 13:57:24;;;;;;;4.13;3.88;;;;;;;;;;4922096;29;20391;-85
2022/09/24 14:00:02;;;;;;;4.07;3.78;;;;;;;;;;4915895;29;20381;-86
2022/09/24 14:02:31;;;;;;;3.63;3.40;;;;;;;;;;4924234;28;20408;-86
2022/09/24 14:04:59;;;;;;;3.75;3.40;;;;;;;;;;4926049;28;20397;-86
2022/09/24 14:07:27;;;;;;;3.45;3.25;;;;;;;;;;4917707;28;20738;-86
2022/09/24 14:10:13;;;;;;;3.78;3.47;;;;;;;;;;4937078;29;20389;-87
2022/09/24 14:12:39;;;;;;;4.10;3.70;;;;;;;;;;4936822;28;20426;-87
2022/09/24 14:15:16;;;;;;;4.13;3.80;;;;;;;;;;4935034;28;20864;-86
2022/09/24 14:17:42;;;;;;;4.05;3.75;;;;;;;;;;4934788;29;20494;-87
2022/09/24 14:20:17;;;;;;;4.05;3.75;;;;;;;;;;4935464;28;20392;-86
2022/09/24 14:22:44;;;;;;;4.82;4.00;;;;;;;;;;4930215;28;20439;-86
2022/09/24 14:25:11;;;;;;;3.80;3.50;;;;;;;;;;4934520;28;20384;-88
2022/09/24 14:27:40;;;;;;;3.72;3.42;;;;;;;;;;4934799;28;20780;-86
2022/09/24 14:30:07;;;;;;;4.07;3.78;;;;;;;;;;4934450;29;20411;-88
2022/09/24 14:32:38;;;;;;;4.32;3.92;;;;;;;;;;4931279;28;20396;-87
2022/09/24 14:35:06;;;;;;;4.32;4.03;;;;;;;;;;4934852;28;20391;-86
2022/09/24 14:37:34;;;;;;;4.05;3.75;;;;;;;;;;4934748;28;20823;-87
2022/09/24 14:40:03;;;;;;;4.47;4.07;;;;;;;;;;4931154;28;20390;-83
2022/09/24 14:42:40;;;;;;;4.00;3.70;;;;;;;;;;4934280;29;20428;-84
2022/09/24 14:45:07;;;;;;;4.07;3.78;;;;;;;;;;4934300;28;20446;-83
2022/09/24 14:47:35;;;;;;;4.00;3.70;;;;;;;;;;4926603;28;21065;-89
2022/09/24 14:50:03;;;;;;;4.10;3.78;;;;;;;;;;4916662;29;20460;-92
2022/09/24 14:52:38;;;;;;;4.25;3.95;;;;;;;;;;4914689;29;20386;-89
2022/09/24 14:55:15;;;;;;;4.50;4.10;;;;;;;;;;4924760;28;20460;-90
2022/09/24 14:57:41;;;;;;;5.00;4.60;;;;;;;;;;4915240;29;21017;-88
2022/09/24 15:00:37;;;;;;;4.80;4.40;;;;;;;;;;4915359;28;20385;-87
2022/09/24 15:03:05;;;;;;;4.30;4.00;;;;;;;;;;4930863;28;20437;-88
2022/09/24 15:05:31;;;;;;;4.20;3.90;;;;;;;;;;4928844;28;20560;-90
2022/09/24 15:08:16;;;;;;;3.70;3.40;;;;;;;;;;4934408;28;20388;-87
2022/09/24 15:10:50;;;;;;;4.38;4.07;;;;;;;;;;4933899;29;20462;-89
2022/09/24 15:13:20;;;;;;;3.67;3.42;;;;;;;;;;4933924;28;20406;-89
2022/09/24 15:15:46;;;;;;;3.95;3.65;;;;;;;;;;4920437;28;20518;-88
2022/09/24 15:18:16;;;;;;;3.90;3.50;;;;;;;;;;4927006;28;20471;-87
2022/09/24 15:20:43;;;;;;;3.65;3.35;;;;;;;;;;4922843;29;21010;-87
2022/09/24 15:23:09;;;;;;;3.33;3.13;;;;;;;;;;4932410;29;20419;-88
2022/09/24 15:25:35;;;;;;;4.63;3.90;;;;;;;;;;4933062;28;20388;-88
2022/09/24 15:28:01;;;;;;;3.95;3.47;;;;;;;;;;4933124;28;20442;-89
2022/09/24 15:30:27;;;;;;;3.40;3.20;;;;;;;;;;4933049;28;20479;-87
2022/09/24 15:32:53;;;;;;;2.90;2.70;;;;;;;;;;4930141;28;20472;-88
2022/09/24 15:35:19;;;;;;;3.80;3.50;;;;;;;;;;4933723;28;20400;-87
2022/09/24 15:37:47;;;;;;;3.70;3.40;;;;;;;;;;4933681;28;20424;-87
2022/09/24 15:40:21;;;;;;;4.47;4.07;;;;;;;;;;4933357;29;20392;-87
2022/09/24 15:42:48;;;;;;;4.50;4.18;;;;;;;;;;4933350;29;20388;-85
2022/09/24 15:45:21;;;;;;;4.25;3.95;;;;;;;;;;4930216;29;20392;-85
2022/09/24 15:47:50;;;;;;;4.40;4.10;;;;;;;;;;4933296;28;20396;-85
2022/09/24 15:50:17;;;;;;;4.75;4.35;;;;;;;;;;4933322;28;20955;-86
2022/09/24 15:52:56;;;;;;;4.03;3.55;;;;;;;;;;4933799;28;20396;-85
2022/09/24 15:55:23;;;;;;;3.85;3.55;;;;;;;;;;4933308;28;20475;-85
2022/09/24 15:57:49;;;;;;;3.60;3.40;;;;;;;;;;4933368;28;20388;-85
2022/09/24 16:00:16;;;;;;;4.75;4.22;;;;;;;;;;4933261;28;20462;-85
2022/09/24 16:02:44;;;;;;;4.77;4.47;;;;;;;;;;4924624;28;20396;-86
2022/09/24 16:05:13;;;;;;;5.18;4.78;;;;;;;;;;4932510;28;20472;-85
2022/09/24 16:07:39;;;;;;;3.95;3.65;;;;;;;;;;4937802;29;20413;-85
2022/09/24 16:10:06;;;;;;;3.72;3.42;;;;;;;;;;4942439;28;20385;-84
2022/09/24 16:12:32;;;;;;;3.70;3.40;;;;;;;;;;4933116;28;20434;-85
2022/09/24 16:14:59;;;;;;;3.42;3.22;;;;;;;;;;4933101;28;20416;-85
2022/09/24 16:17:26;;;;;;;3.60;3.40;;;;;;;;;;4933101;29;20998;-85
2022/09/24 16:19:52;;;;;;;3.78;3.47;;;;;;;;;;4932852;29;20403;-86
2022/09/24 16:22:18;;;;;;;3.95;3.65;;;;;;;;;;4932925;28;20884;-85
2022/09/24 16:24:44;;;;;;;3.90;3.60;;;;;;;;;;4919395;28;20421;-84
2022/09/24 16:27:10;;;;;;;3.22;3.03;;;;;;;;;;4920740;28;20470;-85
2022/09/24 16:29:36;;;;;;;3.30;3.10;;;;;;;;;;4913853;28;20536;-86
2022/09/24 16:32:02;;;;;;;3.35;3.15;;;;;;;;;;4925294;28;20867;-86
2022/09/24 16:34:28;;;;;;;3.45;3.22;;;;;;;;;;4914221;28;20409;-87
2022/09/24 16:36:54;;;;;;;3.10;2.90;;;;;;;;;;4917420;28;20396;-87
2022/09/24 16:39:20;;;;;;;3.45;3.15;;;;;;;;;;4929557;28;20400;-87
2022/09/24 16:41:50;;;;;;;5.05;4.65;;;;;;;;;;4919387;28;20412;-87
2022/09/24 16:44:16;;;;;;;5.50;5.20;;;;;;;;;;4926722;28;20419;-87
2022/09/24 16:46:42;;;;;;;5.10;4.70;;;;;;;;;;4927099;28;20404;-88
2022/09/24 16:49:08;;;;;;;4.40;4.10;;;;;;;;;;4929295;28;20409;-89
2022/09/24 16:51:34;;;;;;;4.40;4.10;;;;;;;;;;4928330;28;20946;-84
2022/09/24 16:54:00;;;;;;;5.00;4.60;;;;;;;;;;4930870;28;20394;-84
2022/09/24 16:56:27;;;;;;;3.83;3.53;;;;;;;;;;4932460;28;20391;-83
2022/09/24 16:58:53;;;;;;;3.55;3.22;;;;;;;;;;4932578;28;20392;-83
2022/09/24 17:01:20;;;;;;;3.35;3.05;;;;;;;;;;4930685;28;20443;-84
2022/09/24 17:03:53;;;;;;;3.65;3.35;;;;;;;;;;4932194;28;20420;-85
2022/09/24 17:06:20;;;;;;;3.72;3.50;;;;;;;;;;4932571;28;20402;-84
2022/09/24 17:11:31;;;;;;;4.20;3.10;;;;;;;;;;4921542;29;20395;-85
2022/09/24 17:13:57;;;;;;;4.30;4.00;;;;;;;;;;4932259;28;20396;-85
2022/09/24 17:16:23;;;;;;;3.88;3.58;;;;;;;;;;4929057;28;20406;-86
2022/09/24 17:18:50;;;;;;;4.10;3.80;;;;;;;;;;4931881;28;20389;-86
2022/09/24 17:21:16;;;;;;;4.20;3.90;;;;;;;;;;4933350;28;20394;-86
2022/09/24 17:23:43;;;;;;;4.07;3.78;;;;;;;;;;4938540;29;20443;-86
2022/09/24 17:26:10;;;;;;;3.83;3.53;;;;;;;;;;4938562;28;20427;-86
2022/09/24 17:28:37;;;;;;;4.20;3.80;;;;;;;;;;4938642;28;20949;-87
2022/09/24 17:31:03;;;;;;;3.80;3.50;;;;;;;;;;4938095;28;20395;-87
2022/09/24 17:33:29;;;;;;;4.22;3.85;;;;;;;;;;4923501;28;20392;-87
2022/09/24 17:35:56;;;;;;;3.80;3.50;;;;;;;;;;4938396;28;20427;-87
2022/09/24 17:38:23;;;;;;;3.70;3.40;;;;;;;;;;4928852;29;20399;-85
2022/09/24 17:40:53;;;;;;;3.72;3.42;;;;;;;;;;4938307;28;20408;-86
2022/09/24 17:43:19;;;;;;;3.72;3.53;;;;;;;;;;4938063;29;20481;-86
2022/09/24 17:45:45;;;;;;;4.00;3.60;;;;;;;;;;4939073;28;20741;-85
2022/09/24 17:48:11;;;;;;;3.85;3.55;;;;;;;;;;4935044;29;20898;-85
2022/09/24 17:50:37;;;;;;;4.38;3.97;;;;;;;;;;4936542;28;20482;-85
2022/09/24 17:53:03;;;;;;;4.00;3.70;;;;;;;;;;4933672;28;20390;-85
2022/09/24 17:55:30;;;;;;;12.10;10.90;;;;;;;;;;4928410;28;20435;-86
2022/09/24 17:57:56;;;;;;;7.03;6.47;;;;;;;;;;4917129;29;20394;-87
2022/09/24 18:00:22;;;;;;;6.53;6.03;;;;;;;;;;4921546;28;20419;-86
2022/09/24 18:02:48;;;;;;;6.10;5.60;;;;;;;;;;4919894;28;20477;-86
2022/09/24 18:05:14;;;;;;;5.60;5.10;;;;;;;;;;4916151;28;20429;-87
2022/09/24 18:07:40;;;;;;;5.75;5.35;;;;;;;;;;4933330;28;20395;-86
2022/09/24 18:10:06;;;;;;;6.30;5.75;;;;;;;;;;4925336;29;20480;-87
2022/09/24 18:12:32;;;;;;;6.13;5.72;;;;;;;;;;4934493;28;20392;-86
2022/09/24 18:14:58;;;;;;;5.93;5.50;;;;;;;;;;4921961;28;20408;-86
2022/09/24 18:17:24;;;;;;;8.10;7.43;;;;;;;;;;4921669;28;20405;-86
2022/09/24 18:19:50;;;;;;;10.40;9.60;;;;;;;;;;4924027;28;20396;-84
2022/09/24 18:22:16;;;;;;;8.40;7.80;;;;;;;;;;4926498;28;20412;-83
2022/09/24 18:24:43;;;;;;;7.13;6.63;;;;;;;;;;4939216;28;20927;-85
2022/09/24 18:27:14;;;;;;;6.63;6.22;;;;;;;;;;4929144;29;20477;-85
2022/09/24 18:29:43;;;;;;;7.03;6.50;;;;;;;;;;4927924;29;20403;-85
2022/09/24 18:32:09;;;;;;;8.20;7.55;;;;;;;;;;4923965;29;20397;-86
2022/09/24 18:34:35;;;;;;;8.55;7.85;;;;;;;;;;4926938;28;20404;-86
2022/09/24 18:37:01;;;;;;;7.70;7.10;;;;;;;;;;4934609;28;20400;-86
2022/09/24 18:39:27;;;;;;;7.35;6.85;;;;;;;;;;4915915;28;20401;-85
2022/09/24 18:41:53;;;;;;;8.75;8.05;;;;;;;;;;4915592;28;20473;-85
2022/09/24 18:44:19;;;;;;;8.50;7.80;;;;;;;;;;4922280;28;20507;-86
2022/09/24 18:46:45;;;;;;;9.32;7.40;;;;;;;;;;4920745;28;20890;-86
2022/09/24 18:49:11;;;;;;;7.10;6.53;;;;;;;;;;4932556;28;20475;-86
2022/09/24 18:51:37;;;;;;;6.22;5.80;;;;;;;;;;4926582;28;20839;-85
2022/09/24 18:54:23;;;;;;;6.35;5.95;;;;;;;;;;4920427;28;20454;-85
2022/09/24 18:56:49;;;;;;;4.95;4.57;;;;;;;;;;4924176;28;20977;-85
2022/09/24 18:59:17;;;;;;;5.30;4.85;;;;;;;;;;4924295;29;20894;-85
2022/09/24 19:01:43;;;;;;;5.15;4.65;;;;;;;;;;4925672;29;20463;-85
2022/09/24 19:04:10;;;;;;;5.35;4.95;;;;;;;;;;4922697;29;20481;-85
2022/09/24 19:06:37;;;;;;;5.20;4.80;;;;;;;;;;4934821;28;20406;-85
2022/09/24 19:09:03;;;;;;;4.97;4.57;;;;;;;;;;4921982;28;20401;-85
2022/09/24 19:11:30;;;;;;;5.28;4.78;;;;;;;;;;4920545;28;20428;-85
2022/09/24 19:13:56;;;;;;;5.25;4.93;;;;;;;;;;4918917;29;20414;-85
2022/09/24 19:16:23;;;;;;;4.70;4.40;;;;;;;;;;4920724;29;21021;-85
2022/09/24 19:18:49;;;;;;;6.00;5.40;;;;;;;;;;4916348;28;21224;-85
2022/09/24 19:21:16;;;;;;;5.40;4.93;;;;;;;;;;4918144;29;20401;-85
2022/09/24 19:23:44;;;;;;;5.00;4.60;;;;;;;;;;4923048;28;20416;-86
2022/09/24 19:26:11;;;;;;;6.20;5.80;;;;;;;;;;4922354;29;20410;-85
2022/09/24 19:28:39;;;;;;;5.20;4.80;;;;;;;;;;4929012;28;20397;-86
2022/09/24 19:31:06;;;;;;;5.70;5.20;;;;;;;;;;4924666;29;20414;-86
2022/09/24 19:33:32;;;;;;;5.47;5.07;;;;;;;;;;4923719;29;20407;-84
2022/09/24 19:36:03;;;;;;;5.35;4.95;;;;;;;;;;4913151;28;20485;-86
2022/09/24 19:38:32;;;;;;;6.00;5.60;;;;;;;;;;4922134;29;20468;-87
2022/09/24 19:40:59;;;;;;;6.07;5.57;;;;;;;;;;4926042;28;20437;-86
2022/09/24 19:43:26;;;;;;;6.05;5.63;;;;;;;;;;4921971;28;20429;-88
2022/09/24 19:45:58;;;;;;;7.35;5.60;;;;;;;;;;4931425;28;20442;-87
2022/09/24 19:48:25;;;;;;;6.18;5.57;;;;;;;;;;4919095;28;20414;-86
2022/09/24 19:50:51;;;;;;;7.00;5.63;;;;;;;;;;4919156;28;20495;-87
2022/09/24 19:53:18;;;;;;;6.28;5.82;;;;;;;;;;4921742;28;20451;-88
2022/09/24 19:55:44;;;;;;;6.13;5.60;;;;;;;;;;4919367;29;20481;-88
2022/09/24 19:58:10;;;;;;;6.20;5.73;;;;;;;;;;4927260;28;20487;-88
2022/09/24 20:00:39;;;;;;;6.28;5.78;;;;;;;;;;4920744;28;20601;-87